createdAt,value
2022-08-30T00:01:00.949Z,94786.84
2022-08-30T00:03:28.042Z,94788.06
2022-08-30T00:05:56.281Z,94781.38
2022-08-30T00:08:23.592Z,94786.78
2022-08-30T00:10:51.399Z,94784.41
2022-08-30T00:13:19.004Z,94775.75
2022-08-30T00:15:46.680Z,94782.00
2022-08-30T00:18:13.673Z,94774.28
2022-08-30T00:20:40.695Z,94780.06
2022-08-30T00:23:07.540Z,94788.63
2022-08-30T00:25:34.539Z,94785.44
2022-08-30T00:28:01.490Z,94786.59
2022-08-30T00:30:28.388Z,94779.56
2022-08-30T00:32:55.298Z,94772.09
2022-08-30T00:35:22.711Z,94781.72
2022-08-30T00:37:51.210Z,94784.69
2022-08-30T00:40:20.498Z,94791.47
2022-08-30T00:42:59.409Z,94794.03
2022-08-30T00:45:31.947Z,94791.91
2022-08-30T00:47:59.292Z,94792.47
2022-08-30T00:50:28.413Z,94793.88
2022-08-30T00:52:57.435Z,94798.00
2022-08-30T00:55:24.555Z,94793.53
2022-08-30T00:57:53.813Z,94793.53
2022-08-30T01:00:20.869Z,94792.66
2022-08-30T01:02:49.092Z,94789.66
2022-08-30T01:05:18.728Z,94796.69
2022-08-30T01:07:45.568Z,94790.44
2022-08-30T01:10:13.697Z,94790.53
2022-08-30T01:12:42.264Z,94787.53
2022-08-30T01:15:10.570Z,94791.59
2022-08-30T01:17:38.147Z,94787.72
2022-08-30T01:20:08.213Z,94786.03
2022-08-30T01:22:39.596Z,94792.28
2022-08-30T01:25:08.423Z,94786.38
2022-08-30T01:27:38.574Z,94780.91
2022-08-30T01:30:06.436Z,94786.81
2022-08-30T01:32:38.331Z,94789.22
2022-08-30T01:35:05.566Z,94790.88
2022-08-30T01:37:34.241Z,94792.75
2022-08-30T01:40:01.315Z,94787.19
2022-08-30T01:42:28.610Z,94780.38
2022-08-30T01:44:55.566Z,94787.41
2022-08-30T01:47:23.211Z,94782.41
2022-08-30T01:49:50.508Z,94776.31
2022-08-30T01:52:17.742Z,94774.13
2022-08-30T01:54:45.192Z,94780.47
2022-08-30T01:57:13.481Z,94781.19
2022-08-30T01:59:41.189Z,94769.81
2022-08-30T02:02:08.548Z,94766.22
2022-08-30T02:04:36.528Z,94763.13
2022-08-30T02:07:04.103Z,94770.97
2022-08-30T02:09:31.067Z,94760.97
2022-08-30T02:11:58.177Z,94764.91
2022-08-30T02:14:25.171Z,94758.66
2022-08-30T02:16:52.144Z,94774.13
2022-08-30T02:19:19.000Z,94768.94
2022-08-30T02:21:45.837Z,94763.91
2022-08-30T02:24:12.872Z,94771.66
2022-08-30T02:26:39.734Z,94762.88
2022-08-30T02:29:06.602Z,94767.44
2022-08-30T02:31:33.539Z,94764.75
2022-08-30T02:34:00.503Z,94763.59
2022-08-30T02:36:27.498Z,94760.59
2022-08-30T02:38:54.378Z,94773.34
2022-08-30T02:41:21.539Z,94764.09
2022-08-30T02:43:48.391Z,94769.00
2022-08-30T02:46:15.393Z,94778.41
2022-08-30T02:48:42.773Z,94771.38
2022-08-30T02:51:12.036Z,94769.88
2022-08-30T02:53:39.726Z,94765.56
2022-08-30T02:56:06.879Z,94761.88
2022-08-30T02:58:33.746Z,94757.81
2022-08-30T03:01:01.201Z,94758.41
2022-08-30T03:03:28.325Z,94766.72
2022-08-30T03:05:55.394Z,94758.03
2022-08-30T03:08:23.018Z,94759.50
2022-08-30T03:10:50.280Z,94761.75
2022-08-30T03:13:17.241Z,94764.03
2022-08-30T03:15:44.243Z,94761.56
2022-08-30T03:18:11.379Z,94764.03
2022-08-30T03:20:38.908Z,94767.44
2022-08-30T03:23:05.801Z,94774.97
2022-08-30T03:25:33.989Z,94772.16
2022-08-30T03:28:01.127Z,94768.16
2022-08-30T03:30:28.114Z,94762.06
2022-08-30T03:32:54.884Z,94766.22
2022-08-30T03:35:21.935Z,94772.66
2022-08-30T03:37:49.515Z,94773.66
2022-08-30T03:40:23.195Z,94771.47
2022-08-30T03:42:50.665Z,94775.97
2022-08-30T03:45:18.661Z,94778.25
2022-08-30T03:47:46.029Z,94785.28
2022-08-30T03:50:13.501Z,94781.19
2022-08-30T03:52:40.381Z,94775.84
2022-08-30T03:55:07.667Z,94775.25
2022-08-30T03:57:34.729Z,94773.88
2022-08-30T04:00:04.718Z,94778.63
2022-08-30T04:02:38.372Z,94772.47
2022-08-30T04:05:05.883Z,94784.59
2022-08-30T04:07:32.801Z,94770.19
2022-08-30T04:09:59.717Z,94772.56
2022-08-30T04:12:28.830Z,94769.50
2022-08-30T04:14:55.911Z,94777.31
2022-08-30T04:17:22.810Z,94778.97
2022-08-30T04:19:49.694Z,94782.31
2022-08-30T04:22:16.634Z,94790.13
2022-08-30T04:24:43.625Z,94787.75
2022-08-30T04:27:10.718Z,94786.97
2022-08-30T04:29:37.640Z,94795.59
2022-08-30T04:32:04.755Z,94802.63
2022-08-30T04:34:31.744Z,94790.91
2022-08-30T04:36:58.889Z,94797.34
2022-08-30T04:39:26.213Z,94798.22
2022-08-30T04:41:53.218Z,94796.41
2022-08-30T04:44:20.255Z,94801.16
2022-08-30T04:46:47.505Z,94800.97
2022-08-30T04:49:14.383Z,94806.28
2022-08-30T04:51:41.395Z,94806.00
2022-08-30T04:54:08.293Z,94799.22
2022-08-30T04:56:35.271Z,94807.59
2022-08-30T04:59:02.446Z,94804.25
2022-08-30T05:01:30.152Z,94810.22
2022-08-30T05:04:00.368Z,94816.47
2022-08-30T05:06:28.475Z,94811.44
2022-08-30T05:08:55.648Z,94821.69
2022-08-30T05:11:23.824Z,94821.69
2022-08-30T05:13:51.001Z,94821.94
2022-08-30T05:16:20.671Z,94820.28
2022-08-30T05:18:49.148Z,94823.78
2022-08-30T05:21:22.948Z,94827.38
2022-08-30T05:23:50.489Z,94828.53
2022-08-30T05:26:20.196Z,94831.63
2022-08-30T05:29:04.573Z,94831.25
2022-08-30T05:31:36.374Z,94834.88
2022-08-30T05:34:09.181Z,94836.56
2022-08-30T05:36:41.737Z,94836.22
2022-08-30T05:39:21.026Z,94830.75
2022-08-30T05:41:56.884Z,94828.72
2022-08-30T05:44:29.796Z,94828.63
2022-08-30T05:46:59.899Z,94836.72
2022-08-30T05:49:32.948Z,94833.13
2022-08-30T05:52:25.826Z,94834.69
2022-08-30T05:55:00.578Z,94839.53
2022-08-30T05:57:28.432Z,94841.13
2022-08-30T05:59:56.627Z,94836.56
2022-08-30T06:03:00.003Z,94834.34
2022-08-30T06:05:32.800Z,94836.03
2022-08-30T06:08:05.106Z,94835.69
2022-08-30T06:10:35.650Z,94834.97
2022-08-30T06:13:04.952Z,94836.75
2022-08-30T06:15:34.899Z,94835.75
2022-08-30T06:18:02.698Z,94838.91
2022-08-30T06:20:41.382Z,94839.81
2022-08-30T06:23:21.356Z,94845.97
2022-08-30T06:25:54.710Z,94846.88
2022-08-30T06:28:25.277Z,94844.22
2022-08-30T06:30:52.450Z,94844.13
2022-08-30T06:33:20.190Z,94848.16
2022-08-30T06:35:58.884Z,94849.81
2022-08-30T06:38:31.099Z,94855.09
2022-08-30T06:40:58.308Z,94853.59
2022-08-30T06:43:25.206Z,94860.72
2022-08-30T06:45:52.527Z,94855.53
2022-08-30T06:48:21.155Z,94851.91
2022-08-30T06:50:53.108Z,94860.28
2022-08-30T06:53:20.342Z,94862.38
2022-08-30T06:56:22.147Z,94886.69
2022-08-30T06:58:49.285Z,94872.75
2022-08-30T07:01:18.966Z,94876.00
2022-08-30T07:03:47.627Z,94871.31
2022-08-30T07:06:14.912Z,94875.28
2022-08-30T07:08:43.394Z,94877.28
2022-08-30T07:11:10.636Z,94876.94
2022-08-30T07:13:38.720Z,94870.69
2022-08-30T07:16:12.232Z,94878.00
2022-08-30T07:18:52.402Z,94881.91
2022-08-30T07:21:21.135Z,94879.16
2022-08-30T07:23:53.633Z,94882.34
2022-08-30T07:26:24.118Z,94878.19
2022-08-30T07:28:52.269Z,94870.16
2022-08-30T07:31:27.580Z,94878.19
2022-08-30T07:33:57.593Z,94885.00
2022-08-30T07:36:26.099Z,94876.13
2022-08-30T07:38:55.352Z,94870.00
2022-08-30T07:41:26.592Z,94871.00
2022-08-30T07:43:53.790Z,94871.69
2022-08-30T07:46:21.796Z,94868.16
2022-08-30T07:48:49.095Z,94870.16
2022-08-30T07:51:17.950Z,94874.47
2022-08-30T07:53:45.304Z,94878.06
2022-08-30T07:56:13.006Z,94882.03
2022-08-30T07:58:39.995Z,94882.50
2022-08-30T08:01:08.363Z,94884.97
2022-08-30T08:03:35.653Z,94884.25
2022-08-30T08:06:05.805Z,94881.56
2022-08-30T08:08:33.481Z,94887.03
2022-08-30T08:11:06.925Z,94888.13
2022-08-30T08:13:36.590Z,94889.66
2022-08-30T08:16:22.617Z,94889.34
2022-08-30T08:18:49.878Z,94888.38
2022-08-30T08:21:17.536Z,94882.78
2022-08-30T08:23:44.782Z,94888.38
2022-08-30T08:26:15.256Z,94890.41
2022-08-30T08:28:46.675Z,94889.72
2022-08-30T08:31:31.490Z,94884.00
2022-08-30T08:36:33.391Z,94884.47
2022-08-30T08:39:01.055Z,94890.06
2022-08-30T08:41:54.462Z,94887.41
2022-08-30T08:44:41.560Z,94898.38
2022-08-30T08:47:25.916Z,94896.53
2022-08-30T08:49:55.810Z,94890.31
2022-08-30T08:53:00.311Z,94893.44
2022-08-30T08:55:27.318Z,94896.69
2022-08-30T08:57:54.353Z,94896.03
2022-08-30T09:00:21.474Z,94890.56
2022-08-30T09:02:55.794Z,94892.88
2022-08-30T09:05:26.424Z,94906.84
2022-08-30T09:07:57.660Z,94898.47
2022-08-30T09:10:47.084Z,94890.63
2022-08-30T09:13:13.446Z,94891.47
2022-08-30T09:15:41.180Z,94885.78
2022-08-30T09:18:19.112Z,94879.31
2022-08-30T09:20:50.531Z,94889.22
2022-08-30T09:23:22.629Z,94884.25
2022-08-30T09:25:57.411Z,94881.34
2022-08-30T09:28:30.966Z,94880.09
2022-08-30T09:31:16.118Z,94877.84
2022-08-30T09:33:53.912Z,94870.97
2022-08-30T09:36:25.886Z,94876.66
2022-08-30T09:39:06.877Z,94884.56
2022-08-30T09:41:42.852Z,94885.09
2022-08-30T09:44:14.348Z,94871.06
2022-08-30T09:49:46.008Z,94874.69
2022-08-30T09:52:31.384Z,94870.88
2022-08-30T09:55:31.437Z,94866.63
2022-08-30T09:58:29.776Z,94869.28
2022-08-30T10:01:12.319Z,94868.72
2022-08-30T10:03:43.866Z,94872.06
2022-08-30T10:06:31.263Z,94866.16
2022-08-30T10:09:17.891Z,94877.06
2022-08-30T10:11:59.610Z,94877.06
2022-08-30T10:14:32.776Z,94875.50
2022-08-30T10:17:27.099Z,94858.31
2022-08-30T10:20:12.711Z,94866.38
2022-08-30T10:22:47.338Z,94861.75
2022-08-30T10:25:23.176Z,94858.75
2022-08-30T10:27:55.893Z,94851.88
2022-08-30T10:30:23.679Z,94850.09
2022-08-30T10:33:08.877Z,94854.22
2022-08-30T10:35:48.696Z,94847.69
2022-08-30T10:38:20.260Z,94849.34
2022-08-30T10:41:09.359Z,94849.47
2022-08-30T10:43:55.191Z,94841.75
2022-08-30T10:46:36.535Z,94838.69
2022-08-30T10:49:04.804Z,94844.19
2022-08-30T10:51:36.931Z,94841.75
2022-08-30T10:54:26.667Z,94843.72
2022-08-30T10:56:54.716Z,94836.66
2022-08-30T10:59:22.401Z,94838.69
2022-08-30T11:02:10.485Z,94835.53
2022-08-30T11:05:07.145Z,94833.97
2022-08-30T11:08:07.069Z,94824.97
2022-08-30T11:10:52.598Z,94825.44
2022-08-30T11:13:25.267Z,94821.25
2022-08-30T11:15:54.114Z,94821.69
2022-08-30T11:18:22.286Z,94818.56
2022-08-30T11:20:52.692Z,94817.75
2022-08-30T11:23:22.062Z,94818.53
2022-08-30T11:26:20.411Z,94817.75
2022-08-30T11:29:09.590Z,94810.16
2022-08-30T11:31:37.920Z,94813.16
2022-08-30T11:34:04.996Z,94805.50
2022-08-30T11:36:52.070Z,94804.50
2022-08-30T11:39:45.511Z,94808.19
2022-08-30T11:42:30.887Z,94809.56
2022-08-30T11:45:16.952Z,94812.03
2022-08-30T11:47:47.465Z,94809.78
2022-08-30T11:50:24.552Z,94808.00
2022-08-30T11:53:19.309Z,94794.63
2022-08-30T11:56:08.800Z,94792.56
2022-08-30T11:58:58.031Z,94786.69
2022-08-30T12:01:51.296Z,94785.09
2022-08-30T12:04:37.910Z,94778.84
2022-08-30T12:07:07.198Z,94774.19
2022-08-30T12:09:55.593Z,94771.69
2022-08-30T12:12:41.021Z,94763.28
2022-08-30T12:15:07.886Z,94751.59
2022-08-30T12:18:15.736Z,94753.59
2022-08-30T12:20:44.847Z,94747.19
2022-08-30T12:23:32.018Z,94742.44
2022-08-30T12:26:16.532Z,94738.81
2022-08-30T12:28:43.963Z,94739.78
2022-08-30T12:31:16.775Z,94737.97
2022-08-30T12:33:54.021Z,94734.75
2022-08-30T12:36:40.907Z,94735.81
2022-08-30T12:39:17.739Z,94734.81
2022-08-30T12:41:45.332Z,94723.88
2022-08-30T12:44:18.260Z,94732.31
2022-08-30T12:46:48.511Z,94723.41
2022-08-30T12:49:20.451Z,94725.03
2022-08-30T12:51:47.632Z,94729.06
2022-08-30T12:54:23.162Z,94718.69
2022-08-30T12:59:59.344Z,94715.31
2022-08-30T13:02:43.780Z,94721.06
2022-08-30T13:05:32.227Z,94723.56
2022-08-30T13:08:21.352Z,94717.16
2022-08-30T13:11:07.394Z,94719.31
2022-08-30T13:13:44.504Z,94721.06
2022-08-30T13:16:22.121Z,94719.91
2022-08-30T13:18:53.993Z,94717.13
2022-08-30T13:21:26.354Z,94708.84
2022-08-30T13:23:58.458Z,94710.88
2022-08-30T13:26:27.525Z,94710.94
2022-08-30T13:28:58.754Z,94701.44
2022-08-30T13:31:26.886Z,94709.03
2022-08-30T13:33:54.254Z,94709.25
2022-08-30T13:36:23.145Z,94707.53
2022-08-30T13:38:52.133Z,94708.50
2022-08-30T13:41:21.015Z,94703.38
2022-08-30T13:46:35.727Z,94699.31
2022-08-30T13:49:04.870Z,94696.00
2022-08-30T13:51:31.913Z,94689.53
2022-08-30T13:54:01.640Z,94684.63
2022-08-30T13:56:32.401Z,94672.91
2022-08-30T13:59:02.897Z,94677.38
2022-08-30T14:01:31.620Z,94680.75
2022-08-30T14:04:18.621Z,94664.53
2022-08-30T14:09:34.722Z,94670.44
2022-08-30T14:12:01.779Z,94662.31
2022-08-30T14:14:42.860Z,94660.41
2022-08-30T14:17:10.465Z,94664.00
2022-08-30T14:19:40.002Z,94658.13
2022-08-30T14:22:07.522Z,94656.94
2022-08-30T14:24:35.154Z,94663.81
2022-08-30T14:27:01.985Z,94657.56
2022-08-30T14:29:30.102Z,94656.84
2022-08-30T14:31:58.390Z,94653.59
2022-08-30T14:34:27.065Z,94651.34
2022-08-30T14:36:53.987Z,94653.06
2022-08-30T14:39:21.252Z,94648.69
2022-08-30T14:41:50.383Z,94654.53
2022-08-30T14:44:18.397Z,94642.03
2022-08-30T14:46:45.803Z,94640.09
2022-08-30T14:49:12.901Z,94639.22
2022-08-30T14:51:40.464Z,94638.38
2022-08-30T14:54:07.724Z,94640.59
2022-08-30T14:56:34.748Z,94641.38
2022-08-30T14:59:03.077Z,94636.97
2022-08-30T15:01:30.557Z,94629.72
2022-08-30T15:03:58.457Z,94625.84
2022-08-30T15:06:26.325Z,94628.69
2022-08-30T15:08:53.670Z,94621.44
2022-08-30T15:11:21.817Z,94626.75
2022-08-30T15:13:48.974Z,94630.31
2022-08-30T15:16:27.343Z,94614.09
2022-08-30T15:18:54.670Z,94614.84
2022-08-30T15:21:25.715Z,94617.38
2022-08-30T15:23:52.815Z,94613.03
2022-08-30T15:26:19.813Z,94612.63
2022-08-30T15:28:46.835Z,94616.19
2022-08-30T15:31:13.699Z,94612.59
2022-08-30T15:33:41.080Z,94614.16
2022-08-30T15:36:11.836Z,94617.91
2022-08-30T15:38:39.045Z,94624.00
2022-08-30T15:41:08.657Z,94621.13
2022-08-30T15:43:35.847Z,94618.28
2022-08-30T15:46:23.220Z,94613.47
2022-08-30T15:48:55.444Z,94609.56
2022-08-30T15:51:22.981Z,94611.59
2022-08-30T15:53:50.800Z,94616.25
2022-08-30T15:56:17.773Z,94611.34
2022-08-30T15:58:45.368Z,94615.16
2022-08-30T16:01:14.975Z,94612.03
2022-08-30T16:03:42.158Z,94611.31
2022-08-30T16:06:14.060Z,94602.59
2022-08-30T16:08:41.363Z,94597.06
2022-08-30T16:11:09.365Z,94604.66
2022-08-30T16:13:36.558Z,94601.16
2022-08-30T16:16:04.699Z,94601.78
2022-08-30T16:18:31.692Z,94599.66
2022-08-30T16:21:19.261Z,94603.50
2022-08-30T16:23:47.205Z,94609.13
2022-08-30T16:26:17.458Z,94610.41
2022-08-30T16:28:44.987Z,94613.00
2022-08-30T16:31:12.167Z,94607.88
2022-08-30T16:33:42.997Z,94599.75
2022-08-30T16:36:11.971Z,94605.59
2022-08-30T16:38:40.114Z,94614.47
2022-08-30T16:41:08.403Z,94615.56
2022-08-30T16:43:36.443Z,94615.84
2022-08-30T16:46:05.748Z,94619.19
2022-08-30T16:48:34.589Z,94622.03
2022-08-30T16:51:07.524Z,94625.16
2022-08-30T16:53:35.803Z,94627.06
2022-08-30T16:56:07.731Z,94628.94
2022-08-30T16:58:35.018Z,94635.88
2022-08-30T17:01:02.294Z,94645.09
2022-08-30T17:03:30.694Z,94646.00
2022-08-30T17:05:58.522Z,94637.06
2022-08-30T17:08:25.950Z,94632.44
2022-08-30T17:10:53.508Z,94648.28
2022-08-30T17:13:21.960Z,94640.47
2022-08-30T17:15:50.114Z,94634.22
2022-08-30T17:18:17.895Z,94639.81
2022-08-30T17:20:45.513Z,94641.38
2022-08-30T17:23:13.256Z,94645.38
2022-08-30T17:25:41.149Z,94649.31
2022-08-30T17:28:08.489Z,94637.53
2022-08-30T17:30:35.712Z,94653.28
2022-08-30T17:33:03.104Z,94647.72
2022-08-30T17:35:30.682Z,94658.75
2022-08-30T17:37:57.908Z,94663.44
2022-08-30T17:40:25.251Z,94665.81
2022-08-30T17:42:52.435Z,94667.75
2022-08-30T17:45:19.532Z,94665.75
2022-08-30T17:47:47.129Z,94670.44
2022-08-30T17:50:14.449Z,94666.91
2022-08-30T17:52:41.660Z,94671.19
2022-08-30T17:55:08.879Z,94677.38
2022-08-30T17:57:36.215Z,94676.03
2022-08-30T18:00:05.791Z,94677.03
2022-08-30T18:02:35.242Z,94674.59
2022-08-30T18:05:04.880Z,94675.41
2022-08-30T18:07:31.873Z,94678.91
2022-08-30T18:09:59.347Z,94681.63
2022-08-30T18:12:26.917Z,94685.91
2022-08-30T18:14:54.239Z,94680.75
2022-08-30T18:17:21.265Z,94684.66
2022-08-30T18:19:49.418Z,94679.16
2022-08-30T18:22:16.593Z,94684.66
2022-08-30T18:24:45.111Z,94686.59
2022-08-30T18:27:13.509Z,94691.28
2022-08-30T18:29:40.526Z,94694.31
2022-08-30T18:32:09.206Z,94686.84
2022-08-30T18:34:36.140Z,94680.53
2022-08-30T18:37:03.200Z,94687.53
2022-08-30T18:39:34.736Z,94691.34
2022-08-30T18:42:02.258Z,94690.88
2022-08-30T18:44:33.384Z,94692.81
2022-08-30T18:47:01.489Z,94695.19
2022-08-30T18:49:29.269Z,94698.59
2022-08-30T18:51:59.988Z,94695.03
2022-08-30T18:54:27.114Z,94691.91
2022-08-30T18:56:54.578Z,94690.75
2022-08-30T18:59:21.814Z,94687.97
2022-08-30T19:01:49.722Z,94699.69
2022-08-30T19:04:30.640Z,94695.38
2022-08-30T19:07:03.415Z,94686.34
2022-08-30T19:09:30.773Z,94689.44
2022-08-30T19:11:57.625Z,94687.03
2022-08-30T19:14:24.566Z,94692.06
2022-08-30T19:16:55.060Z,94688.13
2022-08-30T19:19:23.047Z,94690.09
2022-08-30T19:21:50.613Z,94693.19
2022-08-30T19:24:18.103Z,94684.56
2022-08-30T19:26:46.881Z,94696.31
2022-08-30T19:29:15.125Z,94695.56
2022-08-30T19:31:44.184Z,94694.41
2022-08-30T19:34:11.759Z,94689.25
2022-08-30T19:36:39.824Z,94698.66
2022-08-30T19:39:06.963Z,94682.91
2022-08-30T19:41:33.818Z,94688.38
2022-08-30T19:44:03.522Z,94693.84
2022-08-30T19:46:30.906Z,94689.13
2022-08-30T19:49:01.140Z,94690.66
2022-08-30T19:51:28.089Z,94692.25
2022-08-30T19:53:56.445Z,94693.81
2022-08-30T19:56:25.917Z,94696.50
2022-08-30T19:58:53.208Z,94693.75
2022-08-30T20:04:07.289Z,94686.53
2022-08-30T20:06:34.858Z,94681.78
2022-08-30T20:09:02.067Z,94683.31
2022-08-30T20:11:29.089Z,94684.00
2022-08-30T20:13:56.182Z,94686.59
2022-08-30T20:16:33.016Z,94698.31
2022-08-30T20:19:06.256Z,94694.59
2022-08-30T20:21:33.876Z,94693.50
2022-08-30T20:24:01.120Z,94694.41
2022-08-30T20:26:33.669Z,94687.25
2022-08-30T20:29:02.166Z,94682.91
2022-08-30T20:31:29.367Z,94689.41
2022-08-30T20:33:57.087Z,94690.88
2022-08-30T20:36:23.984Z,94683.09
2022-08-30T20:38:51.294Z,94692.81
2022-08-30T20:41:19.201Z,94686.56
2022-08-30T20:43:46.661Z,94685.97
2022-08-30T20:46:15.287Z,94687.25
2022-08-30T20:48:42.680Z,94683.78
2022-08-30T20:51:17.461Z,94685.06
2022-08-30T20:53:44.850Z,94685.91
2022-08-30T20:56:13.530Z,94680.84
2022-08-30T20:58:41.033Z,94676.97
2022-08-30T21:01:08.839Z,94678.97
2022-08-30T21:03:36.836Z,94675.88
2022-08-30T21:06:03.990Z,94677.09
2022-08-30T21:08:31.033Z,94676.97
2022-08-30T21:10:58.017Z,94681.59
2022-08-30T21:13:24.899Z,94677.38
2022-08-30T21:15:54.691Z,94674.78
2022-08-30T21:18:22.303Z,94681.88
2022-08-30T21:20:49.291Z,94678.78
2022-08-30T21:23:16.342Z,94680.31
2022-08-30T21:25:43.526Z,94672.47
2022-08-30T21:28:10.631Z,94670.91
2022-08-30T21:30:37.740Z,94673.22
2022-08-30T21:33:06.125Z,94672.06
2022-08-30T21:35:51.670Z,94679.09
2022-08-30T21:38:19.420Z,94674.03
2022-08-30T21:40:46.565Z,94671.31
2022-08-30T21:43:13.483Z,94672.47
2022-08-30T21:45:42.017Z,94675.94
2022-08-30T21:48:09.656Z,94671.91
2022-08-30T21:50:38.263Z,94674.72
2022-08-30T21:53:06.181Z,94666.16
2022-08-30T21:55:33.141Z,94659.81
2022-08-30T21:58:00.154Z,94662.44
2022-08-30T22:00:27.010Z,94674.38
2022-08-30T22:02:54.021Z,94674.75
2022-08-30T22:05:21.336Z,94673.75
2022-08-30T22:07:48.174Z,94668.00
2022-08-30T22:10:15.170Z,94670.19
2022-08-30T22:12:42.084Z,94673.13
2022-08-30T22:15:09.584Z,94669.19
2022-08-30T22:17:36.674Z,94667.31
2022-08-30T22:20:04.904Z,94674.66
2022-08-30T22:22:32.234Z,94676.28
2022-08-30T22:24:59.237Z,94678.03
2022-08-30T22:27:26.162Z,94674.63
2022-08-30T22:29:53.040Z,94680.94
2022-08-30T22:32:20.128Z,94683.00
2022-08-30T22:34:47.233Z,94680.53
2022-08-30T22:37:14.461Z,94681.31
2022-08-30T22:39:41.217Z,94687.72
2022-08-30T22:42:10.158Z,94687.00
2022-08-30T22:44:37.068Z,94684.69
2022-08-30T22:47:03.936Z,94679.47
2022-08-30T22:49:30.987Z,94679.66
2022-08-30T22:51:57.799Z,94670.19
2022-08-30T22:54:24.819Z,94675.22
2022-08-30T22:56:51.769Z,94675.59
2022-08-30T22:59:18.692Z,94677.19
2022-08-30T23:01:47.261Z,94665.03
2022-08-30T23:04:14.093Z,94670.50
2022-08-30T23:06:40.980Z,94676.38
2022-08-30T23:09:08.061Z,94659.91
2022-08-30T23:11:38.206Z,94671.63
2022-08-30T23:14:06.243Z,94667.75
2022-08-30T23:16:33.888Z,94658.25
2022-08-30T23:19:00.873Z,94657.41
2022-08-30T23:21:29.130Z,94660.94
2022-08-30T23:24:14.974Z,94662.88
2022-08-30T23:27:01.055Z,94659.34
2022-08-30T23:29:48.928Z,94653.53
2022-08-30T23:32:34.731Z,94652.06
2022-08-30T23:35:19.886Z,94655.81
2022-08-30T23:38:10.530Z,94638.16
2022-08-30T23:40:56.087Z,94638.78
2022-08-30T23:43:41.436Z,94644.31
2022-08-30T23:46:26.840Z,94640.94
2022-08-30T23:49:12.403Z,94643.75
2022-08-30T23:51:57.553Z,94641.31
2022-08-30T23:54:43.140Z,94639.31
2022-08-30T23:57:28.370Z,94636.22
